sensor_id;sensor_type;location;lat;lon;timestamp;P1;durP1;ratioP1;P2;durP2;ratioP2
15443;SDS011;7822;48.146;11.576;2022-10-16T00:01:43;1.67;;;1.30;;
15443;SDS011;7822;48.146;11.576;2022-10-16T00:04:11;1.50;;;1.40;;
15443;SDS011;7822;48.146;11.576;2022-10-16T00:06:39;3.53;;;1.70;;
15443;SDS011;7822;48.146;11.576;2022-10-16T00:09:07;1.43;;;1.33;;
15443;SDS011;7822;48.146;11.576;2022-10-16T00:11:38;1.67;;;1.57;;
15443;SDS011;7822;48.146;11.576;2022-10-16T00:14:09;2.73;;;1.47;;
15443;SDS011;7822;48.146;11.576;2022-10-16T00:16:41;2.77;;;1.80;;
15443;SDS011;7822;48.146;11.576;2022-10-16T00:19:11;1.93;;;1.73;;
15443;SDS011;7822;48.146;11.576;2022-10-16T00:21:38;3.70;;;2.03;;
15443;SDS011;7822;48.146;11.576;2022-10-16T00:24:07;2.33;;;1.40;;
15443;SDS011;7822;48.146;11.576;2022-10-16T00:26:36;1.73;;;1.47;;
15443;SDS011;7822;48.146;11.576;2022-10-16T00:29:05;3.35;;;1.70;;
15443;SDS011;7822;48.146;11.576;2022-10-16T00:31:33;2.63;;;2.13;;
15443;SDS011;7822;48.146;11.576;2022-10-16T00:34:03;2.10;;;1.90;;
15443;SDS011;7822;48.146;11.576;2022-10-16T00:36:31;2.00;;;1.80;;
15443;SDS011;7822;48.146;11.576;2022-10-16T00:38:59;2.35;;;1.63;;
15443;SDS011;7822;48.146;11.576;2022-10-16T00:41:28;1.60;;;1.43;;
15443;SDS011;7822;48.146;11.576;2022-10-16T00:43:57;2.33;;;1.63;;
15443;SDS011;7822;48.146;11.576;2022-10-16T00:46:26;3.38;;;1.73;;
15443;SDS011;7822;48.146;11.576;2022-10-16T00:48:57;2.23;;;1.53;;
15443;SDS011;7822;48.146;11.576;2022-10-16T00:51:33;2.17;;;1.30;;
15443;SDS011;7822;48.146;11.576;2022-10-16T00:54:02;1.47;;;1.37;;
15443;SDS011;7822;48.146;11.576;2022-10-16T00:56:33;2.67;;;1.40;;
15443;SDS011;7822;48.146;11.576;2022-10-16T00:59:01;2.63;;;1.40;;
15443;SDS011;7822;48.146;11.576;2022-10-16T01:01:33;1.58;;;1.27;;
15443;SDS011;7822;48.146;11.576;2022-10-16T01:04:01;2.93;;;1.70;;
15443;SDS011;7822;48.146;11.576;2022-10-16T01:06:32;2.23;;;1.27;;
15443;SDS011;7822;48.146;11.576;2022-10-16T01:09:11;1.57;;;1.40;;
15443;SDS011;7822;48.146;11.576;2022-10-16T01:11:49;2.10;;;1.50;;
15443;SDS011;7822;48.146;11.576;2022-10-16T01:14:26;1.95;;;1.35;;
15443;SDS011;7822;48.146;11.576;2022-10-16T01:17:01;1.30;;;1.20;;
15443;SDS011;7822;48.146;11.576;2022-10-16T01:19:41;1.43;;;1.33;;
15443;SDS011;7822;48.146;11.576;2022-10-16T01:22:19;3.20;;;1.60;;
15443;SDS011;7822;48.146;11.576;2022-10-16T01:24:50;1.67;;;1.07;;
15443;SDS011;7822;48.146;11.576;2022-10-16T01:27:24;2.60;;;1.37;;
15443;SDS011;7822;48.146;11.576;2022-10-16T01:29:56;3.43;;;1.53;;
15443;SDS011;7822;48.146;11.576;2022-10-16T01:32:31;4.23;;;1.33;;
15443;SDS011;7822;48.146;11.576;2022-10-16T01:35:04;2.13;;;1.50;;
15443;SDS011;7822;48.146;11.576;2022-10-16T01:37:38;1.90;;;1.70;;
15443;SDS011;7822;48.146;11.576;2022-10-16T01:40:09;1.80;;;1.57;;
15443;SDS011;7822;48.146;11.576;2022-10-16T01:42:42;1.50;;;1.40;;
15443;SDS011;7822;48.146;11.576;2022-10-16T01:45:14;2.33;;;1.43;;
15443;SDS011;7822;48.146;11.576;2022-10-16T01:47:46;2.20;;;1.30;;
15443;SDS011;7822;48.146;11.576;2022-10-16T01:50:16;1.80;;;1.30;;
15443;SDS011;7822;48.146;11.576;2022-10-16T01:52:46;1.30;;;1.20;;
15443;SDS011;7822;48.146;11.576;2022-10-16T01:55:19;1.87;;;1.23;;
15443;SDS011;7822;48.146;11.576;2022-10-16T01:58:00;1.03;;;1.00;;
15443;SDS011;7822;48.146;11.576;2022-10-16T02:00:30;2.27;;;1.20;;
15443;SDS011;7822;48.146;11.576;2022-10-16T02:02:58;1.30;;;1.20;;
15443;SDS011;7822;48.146;11.576;2022-10-16T02:05:31;1.57;;;1.30;;
15443;SDS011;7822;48.146;11.576;2022-10-16T02:08:01;0.80;;;0.80;;
15443;SDS011;7822;48.146;11.576;2022-10-16T02:10:31;1.80;;;1.10;;
15443;SDS011;7822;48.146;11.576;2022-10-16T02:13:01;1.93;;;1.17;;
15443;SDS011;7822;48.146;11.576;2022-10-16T02:15:33;1.77;;;1.37;;
15443;SDS011;7822;48.146;11.576;2022-10-16T02:18:01;2.20;;;1.37;;
15443;SDS011;7822;48.146;11.576;2022-10-16T02:20:30;1.10;;;1.00;;
15443;SDS011;7822;48.146;11.576;2022-10-16T02:23:01;1.23;;;1.13;;
15443;SDS011;7822;48.146;11.576;2022-10-16T02:25:31;2.20;;;1.30;;
15443;SDS011;7822;48.146;11.576;2022-10-16T02:28:03;1.50;;;1.40;;
15443;SDS011;7822;48.146;11.576;2022-10-16T02:30:36;1.30;;;1.10;;
15443;SDS011;7822;48.146;11.576;2022-10-16T02:33:08;1.73;;;1.10;;
15443;SDS011;7822;48.146;11.576;2022-10-16T02:35:39;1.63;;;1.50;;
15443;SDS011;7822;48.146;11.576;2022-10-16T02:38:09;1.33;;;1.10;;
15443;SDS011;7822;48.146;11.576;2022-10-16T02:40:38;1.63;;;1.27;;
15443;SDS011;7822;48.146;11.576;2022-10-16T02:43:07;1.17;;;0.90;;
15443;SDS011;7822;48.146;11.576;2022-10-16T02:45:36;1.10;;;1.00;;
15443;SDS011;7822;48.146;11.576;2022-10-16T02:48:04;2.70;;;1.27;;
15443;SDS011;7822;48.146;11.576;2022-10-16T02:50:32;1.97;;;1.00;;
15443;SDS011;7822;48.146;11.576;2022-10-16T02:53:00;2.43;;;1.30;;
15443;SDS011;7822;48.146;11.576;2022-10-16T02:55:28;1.40;;;1.13;;
15443;SDS011;7822;48.146;11.576;2022-10-16T02:57:55;1.73;;;1.13;;
15443;SDS011;7822;48.146;11.576;2022-10-16T03:00:24;1.53;;;1.17;;
15443;SDS011;7822;48.146;11.576;2022-10-16T03:02:52;1.63;;;1.23;;
15443;SDS011;7822;48.146;11.576;2022-10-16T03:05:20;1.93;;;1.37;;
15443;SDS011;7822;48.146;11.576;2022-10-16T03:07:52;1.30;;;1.13;;
15443;SDS011;7822;48.146;11.576;2022-10-16T03:10:20;1.27;;;1.20;;
15443;SDS011;7822;48.146;11.576;2022-10-16T03:12:48;1.40;;;1.10;;
15443;SDS011;7822;48.146;11.576;2022-10-16T03:15:15;1.53;;;1.10;;
15443;SDS011;7822;48.146;11.576;2022-10-16T03:17:44;1.33;;;1.10;;
15443;SDS011;7822;48.146;11.576;2022-10-16T03:20:12;3.40;;;1.30;;
15443;SDS011;7822;48.146;11.576;2022-10-16T03:22:40;1.83;;;1.10;;
15443;SDS011;7822;48.146;11.576;2022-10-16T03:25:08;1.47;;;1.30;;
15443;SDS011;7822;48.146;11.576;2022-10-16T03:27:35;4.13;;;1.40;;
15443;SDS011;7822;48.146;11.576;2022-10-16T03:30:03;1.83;;;1.10;;
15443;SDS011;7822;48.146;11.576;2022-10-16T03:32:31;1.33;;;1.10;;
15443;SDS011;7822;48.146;11.576;2022-10-16T03:35:07;1.37;;;1.27;;
15443;SDS011;7822;48.146;11.576;2022-10-16T03:37:35;1.63;;;1.07;;
15443;SDS011;7822;48.146;11.576;2022-10-16T03:40:03;1.37;;;1.10;;
15443;SDS011;7822;48.146;11.576;2022-10-16T03:42:31;1.80;;;1.00;;
15443;SDS011;7822;48.146;11.576;2022-10-16T03:44:59;1.30;;;1.20;;
15443;SDS011;7822;48.146;11.576;2022-10-16T03:47:26;1.50;;;1.23;;
15443;SDS011;7822;48.146;11.576;2022-10-16T03:49:54;0.83;;;0.83;;
15443;SDS011;7822;48.146;11.576;2022-10-16T03:52:23;3.37;;;1.27;;
15443;SDS011;7822;48.146;11.576;2022-10-16T03:54:51;2.97;;;1.10;;
15443;SDS011;7822;48.146;11.576;2022-10-16T03:57:19;2.33;;;1.10;;
15443;SDS011;7822;48.146;11.576;2022-10-16T03:59:46;2.13;;;1.07;;
15443;SDS011;7822;48.146;11.576;2022-10-16T04:02:14;1.27;;;1.17;;
15443;SDS011;7822;48.146;11.576;2022-10-16T04:04:42;2.07;;;1.03;;
15443;SDS011;7822;48.146;11.576;2022-10-16T04:07:09;1.43;;;1.33;;
15443;SDS011;7822;48.146;11.576;2022-10-16T04:09:38;1.10;;;1.00;;
15443;SDS011;7822;48.146;11.576;2022-10-16T04:12:06;3.87;;;1.30;;
15443;SDS011;7822;48.146;11.576;2022-10-16T04:14:34;1.10;;;1.00;;
15443;SDS011;7822;48.146;11.576;2022-10-16T04:17:01;1.27;;;1.17;;
15443;SDS011;7822;48.146;11.576;2022-10-16T04:19:29;1.10;;;1.00;;
15443;SDS011;7822;48.146;11.576;2022-10-16T04:21:56;1.80;;;1.20;;
15443;SDS011;7822;48.146;11.576;2022-10-16T04:24:24;1.27;;;1.13;;
15443;SDS011;7822;48.146;11.576;2022-10-16T04:26:53;1.97;;;1.57;;
15443;SDS011;7822;48.146;11.576;2022-10-16T04:29:21;1.20;;;1.07;;
15443;SDS011;7822;48.146;11.576;2022-10-16T04:31:48;1.13;;;1.03;;
15443;SDS011;7822;48.146;11.576;2022-10-16T04:34:16;1.47;;;1.00;;
15443;SDS011;7822;48.146;11.576;2022-10-16T04:36:43;2.23;;;1.10;;
15443;SDS011;7822;48.146;11.576;2022-10-16T04:39:13;2.20;;;0.93;;
15443;SDS011;7822;48.146;11.576;2022-10-16T04:41:41;1.30;;;1.00;;
15443;SDS011;7822;48.146;11.576;2022-10-16T04:44:10;1.17;;;1.07;;
15443;SDS011;7822;48.146;11.576;2022-10-16T04:46:38;1.23;;;1.13;;
15443;SDS011;7822;48.146;11.576;2022-10-16T04:49:05;1.53;;;1.40;;
15443;SDS011;7822;48.146;11.576;2022-10-16T04:51:33;2.47;;;1.20;;
15443;SDS011;7822;48.146;11.576;2022-10-16T04:54:01;1.77;;;1.10;;
15443;SDS011;7822;48.146;11.576;2022-10-16T04:56:28;1.77;;;1.20;;
15443;SDS011;7822;48.146;11.576;2022-10-16T04:58:57;2.27;;;1.30;;
15443;SDS011;7822;48.146;11.576;2022-10-16T05:01:26;1.30;;;1.20;;
15443;SDS011;7822;48.146;11.576;2022-10-16T05:03:53;1.20;;;1.07;;
15443;SDS011;7822;48.146;11.576;2022-10-16T05:06:21;1.47;;;1.30;;
15443;SDS011;7822;48.146;11.576;2022-10-16T05:08:48;3.07;;;1.57;;
15443;SDS011;7822;48.146;11.576;2022-10-16T05:11:16;1.83;;;0.97;;
15443;SDS011;7822;48.146;11.576;2022-10-16T05:13:44;2.50;;;1.20;;
15443;SDS011;7822;48.146;11.576;2022-10-16T05:16:12;1.73;;;1.17;;
15443;SDS011;7822;48.146;11.576;2022-10-16T05:18:41;1.57;;;1.20;;
15443;SDS011;7822;48.146;11.576;2022-10-16T05:21:08;1.60;;;1.20;;
15443;SDS011;7822;48.146;11.576;2022-10-16T05:23:36;1.60;;;1.23;;
15443;SDS011;7822;48.146;11.576;2022-10-16T05:26:04;2.10;;;1.53;;
15443;SDS011;7822;48.146;11.576;2022-10-16T05:28:31;1.60;;;1.40;;
15443;SDS011;7822;48.146;11.576;2022-10-16T05:30:59;2.13;;;1.37;;
15443;SDS011;7822;48.146;11.576;2022-10-16T05:33:31;1.50;;;1.37;;
15443;SDS011;7822;48.146;11.576;2022-10-16T05:36:01;1.67;;;1.47;;
15443;SDS011;7822;48.146;11.576;2022-10-16T05:38:30;1.73;;;1.23;;
15443;SDS011;7822;48.146;11.576;2022-10-16T05:40:57;2.90;;;1.30;;
15443;SDS011;7822;48.146;11.576;2022-10-16T05:43:26;1.50;;;1.33;;
15443;SDS011;7822;48.146;11.576;2022-10-16T05:45:56;2.00;;;1.47;;
15443;SDS011;7822;48.146;11.576;2022-10-16T05:48:25;1.87;;;1.30;;
15443;SDS011;7822;48.146;11.576;2022-10-16T05:50:56;1.30;;;1.20;;
15443;SDS011;7822;48.146;11.576;2022-10-16T05:53:28;1.50;;;1.40;;
15443;SDS011;7822;48.146;11.576;2022-10-16T05:55:57;2.30;;;1.17;;
15443;SDS011;7822;48.146;11.576;2022-10-16T05:58:28;3.37;;;1.47;;
15443;SDS011;7822;48.146;11.576;2022-10-16T06:00:58;1.53;;;1.30;;
15443;SDS011;7822;48.146;11.576;2022-10-16T06:03:27;1.40;;;1.30;;
15443;SDS011;7822;48.146;11.576;2022-10-16T06:05:55;1.80;;;1.50;;
15443;SDS011;7822;48.146;11.576;2022-10-16T06:08:23;1.77;;;1.30;;
15443;SDS011;7822;48.146;11.576;2022-10-16T06:11:01;1.70;;;1.40;;
15443;SDS011;7822;48.146;11.576;2022-10-16T06:13:29;1.60;;;1.50;;
15443;SDS011;7822;48.146;11.576;2022-10-16T06:15:57;4.13;;;1.70;;
15443;SDS011;7822;48.146;11.576;2022-10-16T06:18:26;2.13;;;1.60;;
15443;SDS011;7822;48.146;11.576;2022-10-16T06:20:55;2.13;;;1.60;;
15443;SDS011;7822;48.146;11.576;2022-10-16T06:23:24;2.40;;;1.60;;
15443;SDS011;7822;48.146;11.576;2022-10-16T06:25:52;2.43;;;1.80;;
15443;SDS011;7822;48.146;11.576;2022-10-16T06:28:25;2.40;;;1.70;;
15443;SDS011;7822;48.146;11.576;2022-10-16T06:30:58;2.80;;;1.60;;
15443;SDS011;7822;48.146;11.576;2022-10-16T06:33:38;2.27;;;1.67;;
15443;SDS011;7822;48.146;11.576;2022-10-16T06:36:06;3.37;;;1.60;;
15443;SDS011;7822;48.146;11.576;2022-10-16T06:38:38;2.37;;;1.80;;
15443;SDS011;7822;48.146;11.576;2022-10-16T06:41:06;1.73;;;1.63;;
15443;SDS011;7822;48.146;11.576;2022-10-16T06:43:37;1.97;;;1.77;;
15443;SDS011;7822;48.146;11.576;2022-10-16T06:46:08;1.50;;;1.40;;
15443;SDS011;7822;48.146;11.576;2022-10-16T06:48:38;2.53;;;2.00;;
15443;SDS011;7822;48.146;11.576;2022-10-16T06:51:08;1.90;;;1.63;;
15443;SDS011;7822;48.146;11.576;2022-10-16T06:53:40;2.60;;;2.40;;
15443;SDS011;7822;48.146;11.576;2022-10-16T06:56:27;2.20;;;2.00;;
15443;SDS011;7822;48.146;11.576;2022-10-16T06:58:57;1.83;;;1.50;;
15443;SDS011;7822;48.146;11.576;2022-10-16T07:01:26;1.87;;;1.67;;
15443;SDS011;7822;48.146;11.576;2022-10-16T07:03:54;2.40;;;1.93;;
15443;SDS011;7822;48.146;11.576;2022-10-16T07:06:22;2.23;;;1.70;;
15443;SDS011;7822;48.146;11.576;2022-10-16T07:08:51;2.13;;;1.83;;
15443;SDS011;7822;48.146;11.576;2022-10-16T07:11:20;2.17;;;1.60;;
15443;SDS011;7822;48.146;11.576;2022-10-16T07:13:49;2.87;;;1.63;;
15443;SDS011;7822;48.146;11.576;2022-10-16T07:16:23;1.60;;;1.50;;
15443;SDS011;7822;48.146;11.576;2022-10-16T07:18:53;1.60;;;1.47;;
15443;SDS011;7822;48.146;11.576;2022-10-16T07:21:25;1.83;;;1.73;;
15443;SDS011;7822;48.146;11.576;2022-10-16T07:23:55;2.07;;;1.50;;
15443;SDS011;7822;48.146;11.576;2022-10-16T07:26:24;1.70;;;1.60;;
15443;SDS011;7822;48.146;11.576;2022-10-16T07:28:53;2.83;;;1.97;;
15443;SDS011;7822;48.146;11.576;2022-10-16T07:31:22;1.60;;;1.50;;
15443;SDS011;7822;48.146;11.576;2022-10-16T07:33:50;2.10;;;1.90;;
15443;SDS011;7822;48.146;11.576;2022-10-16T07:36:19;2.77;;;2.20;;
15443;SDS011;7822;48.146;11.576;2022-10-16T07:38:48;2.33;;;1.80;;
15443;SDS011;7822;48.146;11.576;2022-10-16T07:41:20;1.73;;;1.63;;
15443;SDS011;7822;48.146;11.576;2022-10-16T07:43:49;2.13;;;1.60;;
15443;SDS011;7822;48.146;11.576;2022-10-16T07:46:18;1.90;;;1.70;;
15443;SDS011;7822;48.146;11.576;2022-10-16T07:48:47;2.50;;;1.50;;
15443;SDS011;7822;48.146;11.576;2022-10-16T07:51:16;2.63;;;1.53;;
15443;SDS011;7822;48.146;11.576;2022-10-16T07:53:44;2.30;;;2.10;;
15443;SDS011;7822;48.146;11.576;2022-10-16T07:56:12;2.93;;;1.50;;
15443;SDS011;7822;48.146;11.576;2022-10-16T07:58:40;1.63;;;1.53;;
15443;SDS011;7822;48.146;11.576;2022-10-16T08:01:09;2.93;;;1.63;;
15443;SDS011;7822;48.146;11.576;2022-10-16T08:03:38;2.63;;;1.63;;
15443;SDS011;7822;48.146;11.576;2022-10-16T08:06:07;1.90;;;1.70;;
15443;SDS011;7822;48.146;11.576;2022-10-16T08:08:35;2.27;;;1.70;;
15443;SDS011;7822;48.146;11.576;2022-10-16T08:11:04;1.83;;;1.63;;
15443;SDS011;7822;48.146;11.576;2022-10-16T08:13:32;1.83;;;1.50;;
15443;SDS011;7822;48.146;11.576;2022-10-16T08:16:04;2.23;;;2.13;;
15443;SDS011;7822;48.146;11.576;2022-10-16T08:18:34;1.50;;;1.40;;
15443;SDS011;7822;48.146;11.576;2022-10-16T08:21:02;1.50;;;1.40;;
15443;SDS011;7822;48.146;11.576;2022-10-16T08:23:33;1.80;;;1.50;;
15443;SDS011;7822;48.146;11.576;2022-10-16T08:26:02;2.73;;;1.50;;
15443;SDS011;7822;48.146;11.576;2022-10-16T08:28:37;2.37;;;1.67;;
15443;SDS011;7822;48.146;11.576;2022-10-16T08:31:10;1.93;;;1.27;;
15443;SDS011;7822;48.146;11.576;2022-10-16T08:33:52;1.67;;;1.40;;
15443;SDS011;7822;48.146;11.576;2022-10-16T08:37:00;1.90;;;1.63;;
15443;SDS011;7822;48.146;11.576;2022-10-16T08:39:29;1.98;;;1.50;;
15443;SDS011;7822;48.146;11.576;2022-10-16T08:42:01;1.65;;;1.50;;
15443;SDS011;7822;48.146;11.576;2022-10-16T08:47:44;1.98;;;1.35;;
15443;SDS011;7822;48.146;11.576;2022-10-16T08:50:19;1.50;;;1.40;;
15443;SDS011;7822;48.146;11.576;2022-10-16T08:52:51;1.60;;;1.50;;
15443;SDS011;7822;48.146;11.576;2022-10-16T08:55:25;1.42;;;1.23;;
15443;SDS011;7822;48.146;11.576;2022-10-16T08:57:59;1.50;;;1.35;;
15443;SDS011;7822;48.146;11.576;2022-10-16T09:00:27;1.53;;;1.40;;
15443;SDS011;7822;48.146;11.576;2022-10-16T09:02:59;1.42;;;1.20;;
15443;SDS011;7822;48.146;11.576;2022-10-16T09:05:45;1.40;;;1.30;;
15443;SDS011;7822;48.146;11.576;2022-10-16T09:08:20;1.85;;;1.30;;
15443;SDS011;7822;48.146;11.576;2022-10-16T09:10:56;1.40;;;1.20;;
15443;SDS011;7822;48.146;11.576;2022-10-16T09:13:28;1.52;;;1.42;;
15443;SDS011;7822;48.146;11.576;2022-10-16T09:16:08;1.83;;;1.30;;
15443;SDS011;7822;48.146;11.576;2022-10-16T09:18:45;1.50;;;1.40;;
15443;SDS011;7822;48.146;11.576;2022-10-16T09:21:19;1.45;;;1.35;;
15443;SDS011;7822;48.146;11.576;2022-10-16T09:23:52;2.13;;;1.45;;
15443;SDS011;7822;48.146;11.576;2022-10-16T09:26:25;1.58;;;1.25;;
15443;SDS011;7822;48.146;11.576;2022-10-16T09:28:53;2.38;;;1.63;;
15443;SDS011;7822;48.146;11.576;2022-10-16T09:31:21;1.63;;;1.30;;
15443;SDS011;7822;48.146;11.576;2022-10-16T09:33:51;2.80;;;1.38;;
15443;SDS011;7822;48.146;11.576;2022-10-16T09:36:22;3.83;;;1.92;;
15443;SDS011;7822;48.146;11.576;2022-10-16T09:39:03;1.85;;;1.60;;
15443;SDS011;7822;48.146;11.576;2022-10-16T09:41:34;2.13;;;1.63;;
15443;SDS011;7822;48.146;11.576;2022-10-16T09:44:05;1.95;;;1.40;;
15443;SDS011;7822;48.146;11.576;2022-10-16T09:46:46;1.50;;;1.40;;
15443;SDS011;7822;48.146;11.576;2022-10-16T09:49:20;1.90;;;1.70;;
15443;SDS011;7822;48.146;11.576;2022-10-16T09:51:50;2.55;;;1.70;;
15443;SDS011;7822;48.146;11.576;2022-10-16T09:54:29;2.13;;;1.48;;
15443;SDS011;7822;48.146;11.576;2022-10-16T09:57:05;2.35;;;1.50;;
15443;SDS011;7822;48.146;11.576;2022-10-16T09:59:34;2.00;;;1.77;;
15443;SDS011;7822;48.146;11.576;2022-10-16T10:02:13;2.10;;;1.50;;
15443;SDS011;7822;48.146;11.576;2022-10-16T10:04:44;2.13;;;2.03;;
15443;SDS011;7822;48.146;11.576;2022-10-16T10:07:18;1.80;;;1.63;;
15443;SDS011;7822;48.146;11.576;2022-10-16T10:09:51;1.63;;;1.52;;
15443;SDS011;7822;48.146;11.576;2022-10-16T10:12:27;1.85;;;1.75;;
15443;SDS011;7822;48.146;11.576;2022-10-16T10:15:04;2.03;;;1.83;;
15443;SDS011;7822;48.146;11.576;2022-10-16T10:17:33;1.90;;;1.80;;
15443;SDS011;7822;48.146;11.576;2022-10-16T10:20:14;1.63;;;1.50;;
15443;SDS011;7822;48.146;11.576;2022-10-16T10:22:48;2.03;;;1.42;;
15443;SDS011;7822;48.146;11.576;2022-10-16T10:25:25;2.10;;;1.88;;
15443;SDS011;7822;48.146;11.576;2022-10-16T10:28:05;2.65;;;2.15;;
15443;SDS011;7822;48.146;11.576;2022-10-16T10:30:44;1.75;;;1.50;;
15443;SDS011;7822;48.146;11.576;2022-10-16T10:33:23;1.50;;;1.40;;
15443;SDS011;7822;48.146;11.576;2022-10-16T10:36:01;1.77;;;1.67;;
15443;SDS011;7822;48.146;11.576;2022-10-16T10:38:39;1.83;;;1.73;;
15443;SDS011;7822;48.146;11.576;2022-10-16T10:41:23;1.58;;;1.40;;
15443;SDS011;7822;48.146;11.576;2022-10-16T10:44:23;2.85;;;1.90;;
15443;SDS011;7822;48.146;11.576;2022-10-16T10:47:06;1.63;;;1.52;;
15443;SDS011;7822;48.146;11.576;2022-10-16T10:49:48;2.17;;;1.60;;
15443;SDS011;7822;48.146;11.576;2022-10-16T10:52:31;2.08;;;1.90;;
15443;SDS011;7822;48.146;11.576;2022-10-16T10:55:10;1.63;;;1.42;;
15443;SDS011;7822;48.146;11.576;2022-10-16T10:57:51;1.88;;;1.55;;
15443;SDS011;7822;48.146;11.576;2022-10-16T11:00:30;2.28;;;1.80;;
15443;SDS011;7822;48.146;11.576;2022-10-16T11:03:09;1.83;;;1.73;;
15443;SDS011;7822;48.146;11.576;2022-10-16T11:05:45;1.50;;;1.40;;
15443;SDS011;7822;48.146;11.576;2022-10-16T11:08:17;2.45;;;2.25;;
15443;SDS011;7822;48.146;11.576;2022-10-16T11:10:50;1.92;;;1.83;;
15443;SDS011;7822;48.146;11.576;2022-10-16T11:13:32;1.15;;;0.90;;
15443;SDS011;7822;48.146;11.576;2022-10-16T11:16:10;2.13;;;1.00;;
15443;SDS011;7822;48.146;11.576;2022-10-16T11:18:48;1.77;;;0.88;;
15443;SDS011;7822;48.146;11.576;2022-10-16T11:21:19;0.73;;;0.73;;
15443;SDS011;7822;48.146;11.576;2022-10-16T11:23:57;1.10;;;1.00;;
15443;SDS011;7822;48.146;11.576;2022-10-16T11:26:30;1.20;;;1.10;;
15443;SDS011;7822;48.146;11.576;2022-10-16T11:29:02;0.90;;;0.90;;
15443;SDS011;7822;48.146;11.576;2022-10-16T11:31:37;1.15;;;1.05;;
15443;SDS011;7822;48.146;11.576;2022-10-16T11:34:09;1.33;;;1.02;;
15443;SDS011;7822;48.146;11.576;2022-10-16T11:36:45;2.72;;;1.13;;
15443;SDS011;7822;48.146;11.576;2022-10-16T11:39:19;2.15;;;1.23;;
15443;SDS011;7822;48.146;11.576;2022-10-16T11:41:49;0.90;;;0.90;;
15443;SDS011;7822;48.146;11.576;2022-10-16T11:47:19;2.00;;;1.20;;
15443;SDS011;7822;48.146;11.576;2022-10-16T11:50:14;1.10;;;1.00;;
15443;SDS011;7822;48.146;11.576;2022-10-16T11:52:49;0.68;;;0.60;;
15443;SDS011;7822;48.146;11.576;2022-10-16T11:55:23;1.25;;;0.75;;
15443;SDS011;7822;48.146;11.576;2022-10-16T11:57:57;1.15;;;0.60;;
15443;SDS011;7822;48.146;11.576;2022-10-16T12:00:30;1.20;;;0.75;;
15443;SDS011;7822;48.146;11.576;2022-10-16T12:03:08;0.70;;;0.70;;
15443;SDS011;7822;48.146;11.576;2022-10-16T12:05:49;0.85;;;0.85;;
15443;SDS011;7822;48.146;11.576;2022-10-16T12:08:25;0.93;;;0.93;;
15443;SDS011;7822;48.146;11.576;2022-10-16T12:11:05;2.22;;;0.70;;
15443;SDS011;7822;48.146;11.576;2022-10-16T12:13:35;1.17;;;0.90;;
15443;SDS011;7822;48.146;11.576;2022-10-16T12:16:20;1.00;;;0.60;;
15443;SDS011;7822;48.146;11.576;2022-10-16T12:19:02;1.40;;;0.93;;
15443;SDS011;7822;48.146;11.576;2022-10-16T12:21:37;1.15;;;0.90;;
15443;SDS011;7822;48.146;11.576;2022-10-16T12:24:05;0.55;;;0.55;;
15443;SDS011;7822;48.146;11.576;2022-10-16T12:26:34;0.65;;;0.65;;
15443;SDS011;7822;48.146;11.576;2022-10-16T12:29:11;1.27;;;0.90;;
15443;SDS011;7822;48.146;11.576;2022-10-16T12:31:43;0.63;;;0.63;;
15443;SDS011;7822;48.146;11.576;2022-10-16T12:34:26;0.88;;;0.80;;
15443;SDS011;7822;48.146;11.576;2022-10-16T12:36:55;1.05;;;0.98;;
15443;SDS011;7822;48.146;11.576;2022-10-16T12:39:34;1.60;;;0.85;;
15443;SDS011;7822;48.146;11.576;2022-10-16T12:42:04;1.10;;;1.10;;
15443;SDS011;7822;48.146;11.576;2022-10-16T12:44:46;1.13;;;1.10;;
15443;SDS011;7822;48.146;11.576;2022-10-16T12:47:19;1.08;;;1.00;;
15443;SDS011;7822;48.146;11.576;2022-10-16T12:49:53;0.95;;;0.95;;
15443;SDS011;7822;48.146;11.576;2022-10-16T12:53:30;1.10;;;1.00;;
15443;SDS011;7822;48.146;11.576;2022-10-16T12:56:09;0.90;;;0.90;;
15443;SDS011;7822;48.146;11.576;2022-10-16T12:58:55;1.95;;;1.02;;
15443;SDS011;7822;48.146;11.576;2022-10-16T13:01:34;0.80;;;0.80;;
15443;SDS011;7822;48.146;11.576;2022-10-16T13:04:15;1.52;;;1.13;;
15443;SDS011;7822;48.146;11.576;2022-10-16T13:07:09;2.05;;;1.20;;
15443;SDS011;7822;48.146;11.576;2022-10-16T13:09:52;1.00;;;0.88;;
15443;SDS011;7822;48.146;11.576;2022-10-16T13:12:42;2.15;;;0.90;;
15443;SDS011;7822;48.146;11.576;2022-10-16T13:15:30;1.00;;;1.00;;
15443;SDS011;7822;48.146;11.576;2022-10-16T13:18:09;0.90;;;0.90;;
15443;SDS011;7822;48.146;11.576;2022-10-16T13:23:37;1.00;;;1.00;;
15443;SDS011;7822;48.146;11.576;2022-10-16T13:26:19;1.55;;;1.00;;
15443;SDS011;7822;48.146;11.576;2022-10-16T13:28:58;1.15;;;0.90;;
15443;SDS011;7822;48.146;11.576;2022-10-16T13:31:27;1.10;;;1.00;;
15443;SDS011;7822;48.146;11.576;2022-10-16T13:33:57;3.97;;;1.20;;
15443;SDS011;7822;48.146;11.576;2022-10-16T13:36:27;1.20;;;1.10;;
15443;SDS011;7822;48.146;11.576;2022-10-16T13:39:10;1.00;;;1.00;;
15443;SDS011;7822;48.146;11.576;2022-10-16T13:41:41;1.17;;;1.15;;
15443;SDS011;7822;48.146;11.576;2022-10-16T13:44:13;0.85;;;0.82;;
15443;SDS011;7822;48.146;11.576;2022-10-16T13:46:42;1.90;;;0.90;;
15443;SDS011;7822;48.146;11.576;2022-10-16T13:49:14;1.67;;;1.00;;
15443;SDS011;7822;48.146;11.576;2022-10-16T13:51:53;1.15;;;0.95;;
15443;SDS011;7822;48.146;11.576;2022-10-16T13:54:21;1.58;;;0.77;;
15443;SDS011;7822;48.146;11.576;2022-10-16T13:56:51;1.30;;;1.20;;
15443;SDS011;7822;48.146;11.576;2022-10-16T13:59:32;1.02;;;1.02;;
15443;SDS011;7822;48.146;11.576;2022-10-16T14:02:05;1.40;;;1.30;;
15443;SDS011;7822;48.146;11.576;2022-10-16T14:04:42;2.05;;;1.30;;
15443;SDS011;7822;48.146;11.576;2022-10-16T14:07:12;1.40;;;1.30;;
15443;SDS011;7822;48.146;11.576;2022-10-16T14:09:47;1.25;;;1.15;;
15443;SDS011;7822;48.146;11.576;2022-10-16T14:12:18;2.50;;;1.00;;
15443;SDS011;7822;48.146;11.576;2022-10-16T14:14:52;0.95;;;0.80;;
15443;SDS011;7822;48.146;11.576;2022-10-16T14:17:22;0.80;;;0.73;;
15443;SDS011;7822;48.146;11.576;2022-10-16T14:19:53;0.60;;;0.60;;
15443;SDS011;7822;48.146;11.576;2022-10-16T14:22:30;1.10;;;0.73;;
15443;SDS011;7822;48.146;11.576;2022-10-16T14:25:00;0.80;;;0.80;;
15443;SDS011;7822;48.146;11.576;2022-10-16T14:27:30;0.77;;;0.77;;
15443;SDS011;7822;48.146;11.576;2022-10-16T14:30:11;0.70;;;0.70;;
15443;SDS011;7822;48.146;11.576;2022-10-16T14:32:41;1.02;;;1.00;;
15443;SDS011;7822;48.146;11.576;2022-10-16T14:35:24;0.90;;;0.90;;
15443;SDS011;7822;48.146;11.576;2022-10-16T14:37:57;1.67;;;1.00;;
15443;SDS011;7822;48.146;11.576;2022-10-16T14:40:27;0.93;;;0.93;;
15443;SDS011;7822;48.146;11.576;2022-10-16T14:42:57;0.93;;;0.80;;
15443;SDS011;7822;48.146;11.576;2022-10-16T14:45:27;1.15;;;0.95;;
15443;SDS011;7822;48.146;11.576;2022-10-16T14:47:57;1.10;;;1.00;;
15443;SDS011;7822;48.146;11.576;2022-10-16T14:50:26;0.93;;;0.90;;
15443;SDS011;7822;48.146;11.576;2022-10-16T14:52:53;1.50;;;1.00;;
15443;SDS011;7822;48.146;11.576;2022-10-16T14:55:22;1.38;;;1.00;;
15443;SDS011;7822;48.146;11.576;2022-10-16T14:57:54;0.93;;;0.93;;
15443;SDS011;7822;48.146;11.576;2022-10-16T15:00:27;1.92;;;1.10;;
15443;SDS011;7822;48.146;11.576;2022-10-16T15:02:55;2.20;;;1.30;;
15443;SDS011;7822;48.146;11.576;2022-10-16T15:05:23;1.50;;;1.00;;
15443;SDS011;7822;48.146;11.576;2022-10-16T15:07:53;1.33;;;1.23;;
15443;SDS011;7822;48.146;11.576;2022-10-16T15:10:22;1.60;;;1.40;;
15443;SDS011;7822;48.146;11.576;2022-10-16T15:12:51;1.25;;;1.15;;
15443;SDS011;7822;48.146;11.576;2022-10-16T15:15:29;1.33;;;1.20;;
15443;SDS011;7822;48.146;11.576;2022-10-16T15:18:00;1.55;;;1.38;;
15443;SDS011;7822;48.146;11.576;2022-10-16T15:20:29;1.20;;;1.10;;
15443;SDS011;7822;48.146;11.576;2022-10-16T15:23:00;1.98;;;1.35;;
15443;SDS011;7822;48.146;11.576;2022-10-16T15:25:33;1.27;;;1.17;;
15443;SDS011;7822;48.146;11.576;2022-10-16T15:28:03;1.60;;;1.50;;